Decoded Metar for RJFF (FUKUOKA in JAPAN) (IATA:FUK) | Meteo·Mobile Aviation Weather
aviador You're here:

RJFF Decoded Metar

FUKUOKA in JAPAN
Report Time2019-10-22 14:30:00
UTC Time2019-10-22 14:48:59
Flight Rules vfr VFR
Wind070° at 03 kt
W.Decomp.*RWY 16: 0.3 kt HW 3 kt LCW
Visibility9999 m
Phenomena:N/A
Clouds:N/A
Expected CloudBase > 400 ft AGL from Temp-Dew spread
CeilingNone
Temp17°C (ISA +2)
Dew Point16°C (94% RH)
QNH1014 hPa
Density Alt492 ft
Elevation39 ft
Report Wrong Elevation
Raw Report
METAR RJFF 221430Z AUTO 07003KT 9999 NCD 17/16 Q1014 NOSIG RMK A2996=

Extra information for RJFF:More info

Metar Taf Metar & Taf Last 4 Metars F.Rules Stats Wind Profile Meteogram Temp Stats Airport Information Weather charts Add Link Nearby VenuesMetar ALERT Operation Metar Decoded Social comments